Time;durP1;ratioP1;P1;durP2;ratioP2;P2;SDS_P1;SDS_P2;PMS_P1;PMS_P2;Temp;Humidity;BMP_temperature;BMP_pressure;BME280_temperature;BME280_humidity;BME280_pressure;Samples;Min_cycle;Max_cycle;Signal;HPM_P1;HPM_P2
2023/03/13 00:02:07;;;;;;;8.63;6.30;;;8.70;99.90;;;;;;5051096;28;20231;-74
2023/03/13 00:04:34;;;;;;;9.55;7.65;;;8.70;99.90;;;;;;5053830;28;20233;-73
2023/03/13 00:07:01;;;;;;;13.50;7.85;;;8.70;99.90;;;;;;5052641;28;20666;-74
2023/03/13 00:09:28;;;;;;;10.50;8.45;;;8.60;99.90;;;;;;5052985;28;20225;-76
2023/03/13 00:11:55;;;;;;;15.10;8.18;;;8.70;99.90;;;;;;5052147;28;20229;-76
2023/03/13 00:14:24;;;;;;;14.10;7.90;;;8.70;99.90;;;;;;5052875;28;20224;-77
2023/03/13 00:16:50;;;;;;;14.05;7.57;;;8.60;99.90;;;;;;5052753;28;20278;-77
2023/03/13 00:19:17;;;;;;;10.07;6.55;;;8.60;99.90;;;;;;5052086;28;20268;-76
2023/03/13 00:21:44;;;;;;;12.35;6.35;;;8.70;99.90;;;;;;5051849;28;20307;-75
2023/03/13 00:24:12;;;;;;;11.45;7.43;;;8.70;99.90;;;;;;5052085;28;20251;-74
2023/03/13 00:26:43;;;;;;;13.00;7.55;;;8.70;99.90;;;;;;5052564;28;20556;-74
2023/03/13 00:29:10;;;;;;;9.90;6.55;;;8.70;99.90;;;;;;5052028;28;20425;-75
2023/03/13 00:31:38;;;;;;;14.30;7.35;;;8.80;99.90;;;;;;5052471;28;20240;-75
2023/03/13 00:34:06;;;;;;;13.02;7.35;;;8.80;99.90;;;;;;5052187;28;20623;-76
2023/03/13 00:36:35;;;;;;;10.55;7.35;;;8.80;99.90;;;;;;5052467;28;20225;-76
2023/03/13 00:39:03;;;;;;;8.35;6.10;;;8.90;99.90;;;;;;5052010;28;20279;-76
2023/03/13 00:41:32;;;;;;;13.20;6.72;;;8.90;99.90;;;;;;5052531;28;20239;-76
2023/03/13 00:43:59;;;;;;;12.77;7.40;;;9.00;99.90;;;;;;5051686;28;20227;-76
2023/03/13 00:46:28;;;;;;;15.43;6.68;;;9.00;99.90;;;;;;5052635;28;20221;-75
2023/03/13 00:49:05;;;;;;;14.55;8.82;;;9.00;99.90;;;;;;5052133;28;20236;-76
2023/03/13 00:51:32;;;;;;;9.27;6.28;;;9.00;99.90;;;;;;5052627;28;20294;-75
2023/03/13 00:54:00;;;;;;;9.05;5.57;;;9.00;99.90;;;;;;5051454;28;20224;-75
2023/03/13 00:56:28;;;;;;;10.88;6.38;;;9.00;99.90;;;;;;5051908;28;20758;-75
2023/03/13 00:58:55;;;;;;;15.88;6.80;;;9.10;99.90;;;;;;5051728;28;20236;-74
2023/03/13 01:01:27;;;;;;;12.95;6.88;;;9.10;99.90;;;;;;5051813;28;20877;-76
2023/03/13 01:03:57;;;;;;;12.52;7.47;;;9.10;99.90;;;;;;5051337;28;20558;-75
2023/03/13 01:06:27;;;;;;;10.05;6.93;;;9.20;99.90;;;;;;5052364;28;20532;-76
2023/03/13 01:08:54;;;;;;;10.88;6.88;;;9.10;99.90;;;;;;5051512;28;20552;-76
2023/03/13 01:11:23;;;;;;;12.00;7.53;;;9.10;99.90;;;;;;5051975;28;20248;-76
2023/03/13 01:13:53;;;;;;;11.18;7.70;;;9.10;99.90;;;;;;5051252;28;20228;-77
2023/03/13 01:16:22;;;;;;;11.15;7.50;;;9.10;99.90;;;;;;5051958;28;20225;-76
2023/03/13 01:18:50;;;;;;;9.63;8.02;;;9.10;99.90;;;;;;5051170;28;20737;-76
2023/03/13 01:21:20;;;;;;;10.85;6.25;;;9.10;99.90;;;;;;5051792;28;20220;-76
2023/03/13 01:23:48;;;;;;;12.52;6.70;;;9.10;99.90;;;;;;5052785;28;20231;-76
2023/03/13 01:26:15;;;;;;;10.55;7.85;;;9.10;99.90;;;;;;5056048;28;20241;-75
2023/03/13 01:28:43;;;;;;;11.68;6.80;;;9.10;99.90;;;;;;5055212;28;20225;-76
2023/03/13 01:31:12;;;;;;;14.00;7.32;;;9.20;99.90;;;;;;5056107;28;20228;-76
2023/03/13 01:33:40;;;;;;;9.00;7.07;;;9.10;99.90;;;;;;5056076;28;20306;-75
2023/03/13 01:36:08;;;;;;;10.65;6.82;;;9.20;99.90;;;;;;5055957;28;20223;-77
2023/03/13 01:38:37;;;;;;;12.63;7.45;;;9.20;99.90;;;;;;5056564;28;20229;-75
2023/03/13 01:41:05;;;;;;;11.38;5.65;;;9.20;99.90;;;;;;5057250;28;20307;-74
2023/03/13 01:43:34;;;;;;;10.32;6.93;;;9.20;99.90;;;;;;5058562;28;20231;-75
2023/03/13 01:46:05;;;;;;;9.38;7.40;;;9.20;99.90;;;;;;5057417;28;20241;-75
2023/03/13 01:48:38;;;;;;;15.75;8.55;;;9.30;99.90;;;;;;5055413;28;20228;-74
2023/03/13 01:51:09;;;;;;;13.18;7.30;;;9.20;99.90;;;;;;5055073;28;20238;-75
2023/03/13 01:53:39;;;;;;;12.73;6.28;;;9.20;99.90;;;;;;5054189;28;20221;-75
2023/03/13 01:56:10;;;;;;;9.70;7.20;;;9.20;99.90;;;;;;5055317;28;20242;-75
2023/03/13 01:58:38;;;;;;;9.35;6.63;;;9.20;99.90;;;;;;5054826;28;20279;-74
2023/03/13 02:01:06;;;;;;;14.07;7.43;;;9.30;99.90;;;;;;5054105;28;20228;-75
2023/03/13 02:03:35;;;;;;;7.35;6.55;;;9.20;99.90;;;;;;5053957;28;20315;-75
2023/03/13 02:06:05;;;;;;;17.13;8.82;;;9.20;99.90;;;;;;5053212;28;20232;-75
2023/03/13 02:08:38;;;;;;;8.43;5.78;;;9.20;99.90;;;;;;5054040;28;20253;-75
2023/03/13 02:11:12;;;;;;;10.90;6.70;;;9.30;99.90;;;;;;5053652;28;20283;-74
2023/03/13 02:13:39;;;;;;;12.13;7.28;;;9.30;99.90;;;;;;5054006;28;20619;-73
2023/03/13 02:16:07;;;;;;;9.85;7.38;;;9.30;99.90;;;;;;5053215;28;20346;-73
2023/03/13 02:18:39;;;;;;;11.10;7.90;;;9.40;99.90;;;;;;5054645;28;20598;-74
2023/03/13 02:21:14;;;;;;;10.88;6.97;;;9.40;99.90;;;;;;5054122;28;20239;-74
2023/03/13 02:23:50;;;;;;;8.10;6.15;;;9.40;99.90;;;;;;5054974;28;20239;-74
2023/03/13 02:26:18;;;;;;;9.32;5.55;;;9.40;99.90;;;;;;5054473;28;20501;-74
2023/03/13 02:28:49;;;;;;;12.32;8.40;;;9.40;99.90;;;;;;5054477;28;20256;-73
2023/03/13 02:31:16;;;;;;;6.63;5.60;;;9.50;99.90;;;;;;5054033;28;20229;-74
2023/03/13 02:33:44;;;;;;;9.40;6.43;;;9.50;99.90;;;;;;5054835;28;20294;-74
2023/03/13 02:36:14;;;;;;;9.05;5.75;;;9.40;99.90;;;;;;5052735;28;20225;-75
2023/03/13 02:38:47;;;;;;;8.93;6.53;;;9.50;99.90;;;;;;5054845;28;20229;-74
2023/03/13 02:41:15;;;;;;;6.43;5.70;;;9.50;99.90;;;;;;5054229;28;20232;-74
2023/03/13 02:43:43;;;;;;;9.95;5.90;;;9.40;99.90;;;;;;5054816;28;20286;-74
2023/03/13 02:46:13;;;;;;;10.77;6.32;;;9.50;99.90;;;;;;5053768;28;20225;-74
2023/03/13 02:48:43;;;;;;;11.70;4.90;;;9.40;99.90;;;;;;5054358;28;20224;-74
2023/03/13 02:51:16;;;;;;;9.95;6.10;;;9.40;99.90;;;;;;5053633;28;20252;-74
2023/03/13 02:53:46;;;;;;;9.95;5.70;;;9.40;99.90;;;;;;5054362;28;20248;-74
2023/03/13 02:56:15;;;;;;;9.40;5.82;;;9.40;99.90;;;;;;5053473;28;20308;-76
2023/03/13 02:58:44;;;;;;;7.57;5.32;;;9.40;99.90;;;;;;5054437;28;20616;-74
2023/03/13 03:01:11;;;;;;;9.98;6.45;;;9.40;99.90;;;;;;5042899;28;20281;-75
2023/03/13 03:03:38;;;;;;;7.80;4.97;;;9.40;99.90;;;;;;5053790;28;20236;-76
2023/03/13 03:06:07;;;;;;;11.32;5.88;;;9.40;99.90;;;;;;5053688;28;20228;-75
2023/03/13 03:08:35;;;;;;;10.77;5.00;;;9.50;99.90;;;;;;5053734;28;20313;-76
2023/03/13 03:11:02;;;;;;;8.80;5.53;;;9.40;99.90;;;;;;5053812;28;20259;-74
2023/03/13 03:13:29;;;;;;;8.10;5.50;;;9.50;99.90;;;;;;5054220;28;20730;-75
2023/03/13 03:15:58;;;;;;;9.73;6.20;;;9.50;99.90;;;;;;5053976;28;20743;-73
2023/03/13 03:18:25;;;;;;;8.48;5.60;;;9.50;99.90;;;;;;5053573;28;20292;-74
2023/03/13 03:20:52;;;;;;;7.70;5.30;;;9.50;99.90;;;;;;5053704;28;20704;-74
2023/03/13 03:23:19;;;;;;;15.73;6.10;;;9.50;99.90;;;;;;5053289;28;20220;-74
2023/03/13 03:25:46;;;;;;;5.68;5.20;;;9.50;99.90;;;;;;5053428;28;20252;-74
2023/03/13 03:28:13;;;;;;;9.90;5.15;;;9.50;99.90;;;;;;5041976;28;20232;-74
2023/03/13 03:30:40;;;;;;;8.70;4.43;;;9.50;99.90;;;;;;5053562;28;20232;-74
2023/03/13 03:33:11;;;;;;;8.07;4.80;;;9.50;99.90;;;;;;5052931;28;20347;-75
2023/03/13 03:35:39;;;;;;;12.38;5.30;;;9.60;99.90;;;;;;5053638;28;20557;-76
2023/03/13 03:38:06;;;;;;;10.00;4.63;;;9.60;99.90;;;;;;5053046;28;20686;-75
2023/03/13 03:40:33;;;;;;;9.57;5.40;;;9.60;99.90;;;;;;5053425;28;20327;-75
2023/03/13 03:43:00;;;;;;;8.90;5.38;;;9.60;99.90;;;;;;5053159;28;20233;-75
2023/03/13 03:45:27;;;;;;;5.40;4.65;;;9.60;99.90;;;;;;5052729;28;20256;-75
2023/03/13 03:47:54;;;;;;;12.73;4.93;;;9.60;99.90;;;;;;5052785;28;20283;-74
2023/03/13 03:50:22;;;;;;;9.80;4.65;;;9.70;99.90;;;;;;5052410;28;20627;-74
2023/03/13 03:52:50;;;;;;;12.48;5.40;;;9.80;99.90;;;;;;5053070;28;20228;-75
2023/03/13 03:55:17;;;;;;;7.63;4.80;;;9.70;99.90;;;;;;5052284;28;20216;-74
2023/03/13 03:57:44;;;;;;;6.65;4.07;;;9.70;99.90;;;;;;5053020;28;20693;-75
2023/03/13 04:00:14;;;;;;;7.80;4.80;;;9.80;99.90;;;;;;5052136;28;20274;-74
2023/03/13 04:02:42;;;;;;;7.78;5.90;;;9.80;99.90;;;;;;5052640;28;20728;-74
2023/03/13 04:05:09;;;;;;;10.55;4.75;;;9.80;99.90;;;;;;5052564;28;20282;-76
2023/03/13 04:07:38;;;;;;;8.13;5.03;;;9.70;99.90;;;;;;5053173;28;20234;-77
2023/03/13 04:10:06;;;;;;;15.65;5.28;;;9.80;99.90;;;;;;5052945;28;20224;-75
2023/03/13 04:12:33;;;;;;;8.60;5.10;;;9.80;99.90;;;;;;5051914;28;20659;-74
2023/03/13 04:15:00;;;;;;;14.75;5.68;;;9.80;99.90;;;;;;5053179;28;20224;-74
2023/03/13 04:17:27;;;;;;;10.45;4.57;;;9.90;99.90;;;;;;5052668;28;20224;-76
2023/03/13 04:19:54;;;;;;;16.85;5.22;;;9.90;99.90;;;;;;5052967;28;20523;-76
2023/03/13 04:22:21;;;;;;;7.50;3.85;;;9.90;99.90;;;;;;5052386;28;20602;-74
2023/03/13 04:25:00;;;;;;;13.80;5.75;;;9.90;99.90;;;;;;5042639;28;20670;-76
2023/03/13 04:27:31;;;;;;;11.50;4.68;;;9.80;99.90;;;;;;5031692;28;20236;-72
2023/03/13 04:29:59;;;;;;;14.15;4.65;;;9.90;99.90;;;;;;5032513;28;20232;-73
2023/03/13 04:32:26;;;;;;;11.52;4.80;;;9.90;99.90;;;;;;5032273;28;20225;-73
2023/03/13 04:34:53;;;;;;;11.15;4.55;;;9.90;99.90;;;;;;5032669;28;20222;-73
2023/03/13 04:37:20;;;;;;;6.95;4.10;;;9.90;99.90;;;;;;5032376;28;20233;-73
2023/03/13 04:39:49;;;;;;;10.20;5.05;;;9.90;99.90;;;;;;5032581;28;20737;-74
2023/03/13 04:42:16;;;;;;;6.90;3.80;;;9.90;99.90;;;;;;5032187;28;20229;-73
2023/03/13 04:44:45;;;;;;;6.32;3.60;;;9.90;99.90;;;;;;5031903;28;20237;-74
2023/03/13 04:47:13;;;;;;;10.85;5.07;;;9.90;99.90;;;;;;5030986;28;20667;-72
2023/03/13 04:49:40;;;;;;;11.55;4.72;;;9.90;99.90;;;;;;5031658;28;20225;-75
2023/03/13 04:52:07;;;;;;;12.00;4.22;;;9.90;99.90;;;;;;5036586;28;20262;-74
2023/03/13 04:54:34;;;;;;;8.95;3.95;;;9.80;99.90;;;;;;5033324;28;20348;-74
2023/03/13 04:57:02;;;;;;;15.07;4.68;;;9.90;99.90;;;;;;5032649;28;20240;-74
2023/03/13 04:59:29;;;;;;;12.45;5.95;;;9.80;99.90;;;;;;5034271;28;20271;-74
2023/03/13 05:01:56;;;;;;;9.30;4.10;;;9.80;99.90;;;;;;5036470;28;20228;-74
2023/03/13 05:04:23;;;;;;;11.50;4.63;;;9.80;99.90;;;;;;5035697;28;20496;-75
2023/03/13 05:06:50;;;;;;;8.05;4.28;;;9.70;99.90;;;;;;5036566;28;20237;-74
2023/03/13 05:09:17;;;;;;;10.23;4.75;;;9.70;99.90;;;;;;5036196;28;20225;-73
2023/03/13 05:11:44;;;;;;;15.30;4.85;;;9.70;99.90;;;;;;5035776;28;20237;-74
2023/03/13 05:14:12;;;;;;;17.90;5.28;;;9.70;99.90;;;;;;5036372;28;20232;-74
2023/03/13 05:16:39;;;;;;;14.25;4.55;;;9.70;99.90;;;;;;5035767;28;20229;-74
2023/03/13 05:19:06;;;;;;;8.88;4.85;;;9.70;99.90;;;;;;5036169;28;20237;-74
2023/03/13 05:21:33;;;;;;;9.00;4.13;;;9.70;99.90;;;;;;5035887;28;20619;-74
2023/03/13 05:24:00;;;;;;;9.98;3.85;;;9.80;99.90;;;;;;5035881;28;20671;-74
2023/03/13 05:26:27;;;;;;;9.40;3.83;;;9.80;99.90;;;;;;5035733;28;20691;-74
2023/03/13 05:28:54;;;;;;;11.68;5.10;;;9.90;99.90;;;;;;5043546;28;20701;-74
2023/03/13 05:31:23;;;;;;;13.32;4.63;;;9.90;99.90;;;;;;5055247;28;20278;-74
2023/03/13 05:33:50;;;;;;;9.43;4.60;;;9.90;99.90;;;;;;5055255;28;20555;-74
2023/03/13 05:36:17;;;;;;;9.15;4.28;;;9.90;99.90;;;;;;5055810;28;20946;-74
2023/03/13 05:38:44;;;;;;;13.30;4.72;;;10.00;99.90;;;;;;5054951;28;20252;-74
2023/03/13 05:41:11;;;;;;;12.63;4.78;;;9.90;99.90;;;;;;5056001;28;20610;-76
2023/03/13 05:43:38;;;;;;;10.38;3.72;;;9.90;99.90;;;;;;5055109;28;20221;-76
2023/03/13 05:46:05;;;;;;;13.15;5.80;;;10.00;99.90;;;;;;5047207;28;20236;-76
2023/03/13 05:48:33;;;;;;;16.15;4.93;;;10.00;99.90;;;;;;5059786;28;20232;-76
2023/03/13 05:51:01;;;;;;;10.65;5.22;;;10.00;99.90;;;;;;5065798;28;20270;-76
2023/03/13 05:53:31;;;;;;;14.45;5.15;;;9.90;99.90;;;;;;5061498;28;20244;-74
2023/03/13 05:55:58;;;;;;;12.32;5.38;;;9.90;99.90;;;;;;5059048;28;20228;-74
2023/03/13 05:58:25;;;;;;;10.57;3.55;;;9.90;99.90;;;;;;5059042;28;20299;-74
2023/03/13 06:00:52;;;;;;;17.15;4.50;;;9.90;99.90;;;;;;5062844;28;20279;-74
2023/03/13 06:03:19;;;;;;;10.13;3.90;;;9.90;99.90;;;;;;5068567;28;20225;-74
2023/03/13 06:05:47;;;;;;;12.48;4.45;;;9.90;99.90;;;;;;5067762;28;20255;-74
2023/03/13 06:08:14;;;;;;;15.90;5.18;;;9.90;99.90;;;;;;5068750;28;20233;-75
2023/03/13 06:10:41;;;;;;;11.73;5.68;;;9.90;99.90;;;;;;5068224;28;20229;-73
2023/03/13 06:13:10;;;;;;;10.95;5.07;;;9.90;99.90;;;;;;5067274;28;20232;-74
2023/03/13 06:15:37;;;;;;;8.48;4.35;;;9.90;99.90;;;;;;5063102;28;20274;-74
2023/03/13 06:18:04;;;;;;;12.65;5.32;;;9.90;99.90;;;;;;5055062;28;20220;-75
2023/03/13 06:20:31;;;;;;;10.43;4.72;;;9.80;99.90;;;;;;5055304;28;20224;-75
2023/03/13 06:23:01;;;;;;;11.23;5.38;;;9.90;99.90;;;;;;5055225;28;20639;-74
2023/03/13 06:25:28;;;;;;;9.48;4.45;;;9.90;99.90;;;;;;5056210;28;20231;-74
2023/03/13 06:27:55;;;;;;;11.75;5.10;;;9.90;99.90;;;;;;5054424;28;20292;-74
2023/03/13 06:30:22;;;;;;;12.75;4.20;;;9.90;99.90;;;;;;5054970;28;20286;-74
2023/03/13 06:32:50;;;;;;;19.05;5.90;;;9.90;99.90;;;;;;5054636;28;20666;-74
2023/03/13 06:35:17;;;;;;;10.95;4.47;;;9.90;99.90;;;;;;5055594;28;20224;-75
2023/03/13 06:37:44;;;;;;;15.15;5.13;;;9.90;99.90;;;;;;5055371;28;20746;-76
2023/03/13 06:40:13;;;;;;;11.90;4.55;;;9.90;99.90;;;;;;5060231;28;20252;-76
2023/03/13 06:43:01;;;;;;;13.93;4.90;;;9.80;99.90;;;;;;5055075;28;20220;-74
2023/03/13 06:45:28;;;;;;;20.40;6.10;;;9.80;99.90;;;;;;5047631;28;20224;-73
2023/03/13 06:47:55;;;;;;;9.27;4.70;;;9.80;99.90;;;;;;5055788;28;20232;-75
2023/03/13 06:50:22;;;;;;;13.07;4.95;;;9.80;99.90;;;;;;5056050;28;20674;-75
2023/03/13 06:52:50;;;;;;;14.98;5.30;;;9.80;99.90;;;;;;5055361;28;20228;-75
2023/03/13 06:55:18;;;;;;;13.88;5.43;;;9.80;99.90;;;;;;5061314;28;20586;-75
2023/03/13 06:57:49;;;;;;;17.33;6.70;;;9.80;99.90;;;;;;5059227;28;20232;-75
2023/03/13 07:00:17;;;;;;;19.08;5.30;;;9.80;99.90;;;;;;5056146;28;20281;-76
2023/03/13 07:02:44;;;;;;;14.02;4.75;;;9.80;99.90;;;;;;5055275;28;20250;-75
2023/03/13 07:05:11;;;;;;;14.27;5.18;;;9.90;99.90;;;;;;5056038;28;20216;-76
2023/03/13 07:07:38;;;;;;;15.80;4.97;;;9.90;99.90;;;;;;5055706;28;20343;-74
2023/03/13 07:10:06;;;;;;;11.27;5.60;;;9.90;99.90;;;;;;5056455;28;20251;-74
2023/03/13 07:12:34;;;;;;;9.38;5.32;;;9.90;99.90;;;;;;5061481;28;20320;-74
2023/03/13 07:15:01;;;;;;;7.10;4.53;;;10.00;99.90;;;;;;5055692;28;20217;-77
2023/03/13 07:17:28;;;;;;;8.68;4.18;;;10.00;99.90;;;;;;5055290;28;20278;-74
2023/03/13 07:19:55;;;;;;;13.77;4.00;;;10.10;99.90;;;;;;5054551;28;20220;-74
2023/03/13 07:22:23;;;;;;;15.65;5.03;;;10.10;99.90;;;;;;5053678;28;20228;-76
2023/03/13 07:24:50;;;;;;;11.85;6.00;;;10.10;99.90;;;;;;5052579;28;20267;-76
2023/03/13 07:27:19;;;;;;;14.25;5.85;;;10.10;99.90;;;;;;5054449;28;20228;-73
2023/03/13 07:29:48;;;;;;;15.00;4.80;;;10.10;99.90;;;;;;5053455;28;20263;-73
2023/03/13 07:32:15;;;;;;;14.95;7.07;;;10.10;99.90;;;;;;5054092;28;20315;-76
2023/03/13 07:34:45;;;;;;;12.30;6.90;;;10.10;99.90;;;;;;5042376;28;20255;-76
2023/03/13 07:37:12;;;;;;;13.25;5.25;;;10.10;99.90;;;;;;5052679;28;23568;-76
2023/03/13 07:39:39;;;;;;;17.02;5.20;;;10.10;99.90;;;;;;5041278;28;20229;-74
2023/03/13 07:42:06;;;;;;;21.10;6.97;;;10.10;99.90;;;;;;5052929;28;20682;-75
2023/03/13 07:44:33;;;;;;;16.38;6.60;;;10.10;99.90;;;;;;5053668;28;20294;-74
2023/03/13 07:47:02;;;;;;;15.10;6.05;;;10.10;99.90;;;;;;5053604;28;20224;-74
2023/03/13 07:49:32;;;;;;;16.92;7.63;;;10.10;99.90;;;;;;5053131;28;21279;-76
2023/03/13 07:52:01;;;;;;;25.17;9.23;;;10.20;99.90;;;;;;5053348;28;20224;-76
2023/03/13 07:54:31;;;;;;;21.13;5.95;;;10.20;99.90;;;;;;5052160;28;20566;-74
2023/03/13 07:56:58;;;;;;;25.08;6.88;;;10.20;99.90;;;;;;5053284;28;20295;-75
2023/03/13 07:59:25;;;;;;;13.43;5.03;;;10.20;99.90;;;;;;5052317;28;21262;-76
2023/03/13 08:01:52;;;;;;;15.38;5.68;;;10.20;99.90;;;;;;5052976;28;20228;-76
2023/03/13 08:04:20;;;;;;;13.98;7.57;;;10.30;99.90;;;;;;5052557;28;20282;-76
2023/03/13 08:06:47;;;;;;;10.07;4.15;;;10.20;99.90;;;;;;5052680;28;20252;-76
2023/03/13 08:09:14;;;;;;;9.60;4.38;;;10.20;99.90;;;;;;5052210;28;20263;-76
2023/03/13 08:11:44;;;;;;;14.70;5.20;;;10.30;99.90;;;;;;5052968;28;20251;-74
2023/03/13 08:14:11;;;;;;;9.20;4.00;;;10.30;99.90;;;;;;5052187;28;20286;-74
2023/03/13 08:16:38;;;;;;;15.07;5.15;;;10.30;99.90;;;;;;5052620;28;20225;-74
2023/03/13 08:19:06;;;;;;;13.48;4.70;;;10.30;99.90;;;;;;5052533;28;20282;-73
2023/03/13 08:21:36;;;;;;;10.95;4.13;;;10.30;99.90;;;;;;5052576;28;20221;-75
2023/03/13 08:24:06;;;;;;;12.35;4.60;;;10.40;99.90;;;;;;5052657;28;20678;-74
2023/03/13 08:26:35;;;;;;;11.50;4.22;;;10.30;99.90;;;;;;5051847;28;20248;-76
2023/03/13 08:29:04;;;;;;;9.02;3.65;;;10.30;99.90;;;;;;5041482;28;20314;-74
2023/03/13 08:31:34;;;;;;;11.68;5.03;;;10.30;99.90;;;;;;5032913;28;20316;-74
2023/03/13 08:34:01;;;;;;;15.45;6.05;;;10.30;99.90;;;;;;5031195;28;20544;-75
2023/03/13 08:36:31;;;;;;;13.98;6.70;;;10.30;99.90;;;;;;5032335;28;20283;-75
2023/03/13 08:39:04;;;;;;;11.70;5.50;;;10.30;99.90;;;;;;5032861;28;20707;-75
2023/03/13 08:41:35;;;;;;;12.65;8.02;;;10.30;99.90;;;;;;5032274;28;20529;-76
2023/03/13 08:44:05;;;;;;;9.52;5.90;;;10.30;99.90;;;;;;5032244;28;20810;-76
2023/03/13 08:46:34;;;;;;;9.10;4.60;;;10.30;99.90;;;;;;5031515;28;20220;-74
2023/03/13 08:49:02;;;;;;;12.10;4.65;;;10.40;99.90;;;;;;5038108;28;20272;-74
2023/03/13 08:51:29;;;;;;;9.15;6.05;;;10.40;99.90;;;;;;5032074;28;20255;-74
2023/03/13 08:53:57;;;;;;;8.60;6.07;;;10.40;99.90;;;;;;5032297;28;20705;-74
2023/03/13 08:56:29;;;;;;;14.15;5.50;;;10.40;99.90;;;;;;5031773;28;20232;-74
2023/03/13 08:58:58;;;;;;;12.45;6.82;;;10.40;99.90;;;;;;5032470;28;20304;-75
2023/03/13 09:01:27;;;;;;;14.65;8.35;;;10.40;99.90;;;;;;5030922;28;20549;-75
2023/03/13 09:03:55;;;;;;;10.63;6.07;;;10.40;99.90;;;;;;5032382;28;20221;-75
2023/03/13 09:06:25;;;;;;;10.48;4.82;;;10.50;99.90;;;;;;5032343;28;20228;-75
2023/03/13 09:08:52;;;;;;;12.48;4.53;;;10.50;99.90;;;;;;5031542;28;20543;-76
2023/03/13 09:11:21;;;;;;;6.90;4.22;;;10.50;99.90;;;;;;5032687;28;20217;-77
2023/03/13 09:13:52;;;;;;;10.63;4.35;;;10.50;99.90;;;;;;5031540;28;20614;-77
2023/03/13 09:16:20;;;;;;;12.70;4.47;;;10.50;99.90;;;;;;5032507;28;20248;-75
2023/03/13 09:18:53;;;;;;;9.95;4.38;;;10.50;99.90;;;;;;5031684;28;20236;-77
2023/03/13 09:21:22;;;;;;;13.38;5.63;;;10.60;99.90;;;;;;5032511;28;20255;-76
2023/03/13 09:23:49;;;;;;;10.63;4.95;;;10.70;99.90;;;;;;5031720;28;20287;-76
2023/03/13 09:26:17;;;;;;;12.48;5.82;;;10.80;99.90;;;;;;5031861;28;20229;-74
2023/03/13 09:28:44;;;;;;;17.00;5.28;;;10.80;99.90;;;;;;5037322;28;20264;-75
2023/03/13 09:31:14;;;;;;;8.63;4.65;;;10.80;99.90;;;;;;5050876;28;20225;-75
2023/03/13 09:33:42;;;;;;;10.90;4.45;;;10.80;99.90;;;;;;5051536;28;20319;-74
2023/03/13 09:36:10;;;;;;;7.45;5.15;;;10.80;99.90;;;;;;5051591;28;20286;-74
2023/03/13 09:38:38;;;;;;;16.10;4.85;;;10.80;99.90;;;;;;5051450;28;20256;-74
2023/03/13 09:41:20;;;;;;;9.60;3.70;;;10.90;99.90;;;;;;5051793;28;20228;-73
2023/03/13 09:43:51;;;;;;;14.35;4.90;;;10.80;99.90;;;;;;5051214;28;20286;-74
2023/03/13 09:46:25;;;;;;;13.93;4.00;;;10.90;99.90;;;;;;5054992;28;20606;-74
2023/03/13 09:48:56;;;;;;;7.07;4.35;;;10.90;99.90;;;;;;5054650;28;20313;-76
2023/03/13 09:51:27;;;;;;;8.80;5.00;;;10.90;99.90;;;;;;5055437;28;20579;-75
2023/03/13 09:54:07;;;;;;;10.48;6.28;;;11.00;99.90;;;;;;5054579;28;20323;-76
2023/03/13 09:56:39;;;;;;;11.18;5.00;;;11.00;99.90;;;;;;5054676;28;20256;-75
2023/03/13 09:59:16;;;;;;;8.43;3.55;;;11.00;99.90;;;;;;5055305;28;20681;-76
2023/03/13 10:01:46;;;;;;;8.57;3.75;;;11.10;99.90;;;;;;5054597;28;20285;-74
2023/03/13 10:04:29;;;;;;;8.50;3.58;;;11.10;99.90;;;;;;5055026;28;20709;-74
2023/03/13 10:06:56;;;;;;;8.48;3.88;;;11.10;99.90;;;;;;5054570;28;20247;-74
2023/03/13 10:09:29;;;;;;;5.15;3.90;;;11.10;99.90;;;;;;5054952;28;20286;-74
2023/03/13 10:12:04;;;;;;;9.75;4.50;;;11.10;99.90;;;;;;5053572;28;20283;-74
2023/03/13 10:14:35;;;;;;;7.70;3.70;;;11.10;99.90;;;;;;5045305;28;20216;-75
2023/03/13 10:17:10;;;;;;;8.82;3.80;;;11.10;99.90;;;;;;5040352;28;20655;-74
2023/03/13 10:19:41;;;;;;;8.32;4.22;;;11.10;99.90;;;;;;5039798;28;20229;-74
2023/03/13 10:22:15;;;;;;;13.85;7.50;;;11.10;99.90;;;;;;5052377;28;20552;-74
2023/03/13 10:24:50;;;;;;;11.18;4.00;;;11.20;99.90;;;;;;5054467;28;20255;-76
2023/03/13 10:27:22;;;;;;;7.15;2.92;;;11.20;99.90;;;;;;5053894;28;20667;-76
2023/03/13 10:29:50;;;;;;;6.10;3.60;;;11.20;99.90;;;;;;5053459;28;20224;-76
2023/03/13 10:32:19;;;;;;;13.20;5.93;;;11.30;99.90;;;;;;5052301;28;20232;-74
2023/03/13 10:34:52;;;;;;;5.07;3.60;;;11.30;99.90;;;;;;5050391;28;20235;-76
2023/03/13 10:37:23;;;;;;;7.30;3.88;;;11.40;99.90;;;;;;5049589;28;20221;-75
2023/03/13 10:39:55;;;;;;;9.02;3.95;;;11.40;99.90;;;;;;5048670;28;20232;-75
2023/03/13 10:42:28;;;;;;;6.30;3.78;;;11.40;99.90;;;;;;5039598;28;20263;-77
2023/03/13 10:45:06;;;;;;;9.07;3.92;;;11.40;99.90;;;;;;5051991;28;20322;-73
2023/03/13 10:47:35;;;;;;;5.45;3.90;;;11.50;99.90;;;;;;5051295;28;20303;-76
2023/03/13 10:50:05;;;;;;;13.05;7.55;;;11.50;99.90;;;;;;5050151;28;20275;-76
2023/03/13 10:52:35;;;;;;;15.65;6.97;;;11.60;99.90;;;;;;5048076;28;20216;-75
2023/03/13 10:55:12;;;;;;;8.32;3.35;;;11.70;99.90;;;;;;5039465;28;20673;-76
2023/03/13 10:57:41;;;;;;;6.40;2.58;;;11.80;99.90;;;;;;5051579;28;20221;-76
2023/03/13 11:00:28;;;;;;;5.13;2.90;;;11.80;99.90;;;;;;5052156;28;20646;-76
2023/03/13 11:03:10;;;;;;;6.72;3.05;;;11.90;99.90;;;;;;5049593;28;20224;-76
2023/03/13 11:05:42;;;;;;;6.35;3.00;;;11.90;99.90;;;;;;5043596;28;20233;-75
2023/03/13 11:08:21;;;;;;;8.10;3.72;;;12.00;99.90;;;;;;5048069;28;20224;-74
2023/03/13 11:10:54;;;;;;;5.60;3.53;;;12.20;99.90;;;;;;5029403;28;20276;-75
2023/03/13 11:13:29;;;;;;;4.53;2.55;;;12.20;99.90;;;;;;5050379;28;20272;-75
2023/03/13 11:15:59;;;;;;;9.27;2.88;;;12.30;99.90;;;;;;5043804;28;20304;-76
2023/03/13 11:18:35;;;;;;;10.10;2.97;;;12.40;99.90;;;;;;5052648;28;20220;-76
2023/03/13 11:21:05;;;;;;;2.92;2.60;;;12.50;99.90;;;;;;5049413;28;20216;-74
2023/03/13 11:23:37;;;;;;;3.90;2.63;;;12.60;99.90;;;;;;5053228;28;20593;-74
2023/03/13 11:26:14;;;;;;;5.18;2.50;;;12.70;99.90;;;;;;5047023;28;20224;-74
2023/03/13 11:28:50;;;;;;;7.68;2.70;;;12.80;99.90;;;;;;5052734;28;20247;-76
2023/03/13 11:31:23;;;;;;;6.68;2.92;;;12.90;99.90;;;;;;5049308;28;20228;-75
2023/03/13 11:33:58;;;;;;;2.97;1.90;;;13.00;99.90;;;;;;5052649;28;20606;-74
2023/03/13 11:36:33;;;;;;;2.28;2.15;;;13.00;99.90;;;;;;5048413;28;20289;-74
2023/03/13 11:39:17;;;;;;;2.25;1.70;;;13.10;99.90;;;;;;5049165;28;20228;-74
2023/03/13 11:41:57;;;;;;;3.22;1.95;;;13.20;99.90;;;;;;5051596;28;20225;-74
2023/03/13 11:44:45;;;;;;;4.75;2.67;;;13.20;99.90;;;;;;5050788;28;20228;-75
2023/03/13 11:47:32;;;;;;;4.73;2.20;;;13.40;99.90;;;;;;5050529;28;20240;-76
2023/03/13 11:50:26;;;;;;;2.73;1.83;;;13.40;99.90;;;;;;5049371;28;20471;-76
2023/03/13 11:53:04;;;;;;;4.50;4.03;;;13.50;99.90;;;;;;5050570;28;20465;-74
2023/03/13 11:55:49;;;;;;;6.37;3.93;;;13.60;99.90;;;;;;5050884;28;20311;-74
2023/03/13 11:58:45;;;;;;;3.55;2.13;;;13.70;99.90;;;;;;5022159;28;20462;-74
2023/03/13 12:01:14;;;;;;;4.85;2.60;;;13.70;99.90;;;;;;5051081;28;20227;-74
2023/03/13 12:03:51;;;;;;;2.73;2.47;;;13.70;99.90;;;;;;5053652;28;20228;-74
2023/03/13 12:06:26;;;;;;;1.70;1.60;;;13.80;99.90;;;;;;5051539;28;20455;-74
2023/03/13 12:08:59;;;;;;;2.42;2.22;;;13.80;99.90;;;;;;5049823;28;20474;-74
2023/03/13 12:11:28;;;;;;;2.27;1.83;;;13.80;99.90;;;;;;5050066;28;20255;-73
2023/03/13 12:14:01;;;;;;;1.60;1.40;;;13.90;99.90;;;;;;5046481;28;20541;-76
2023/03/13 12:16:39;;;;;;;2.70;2.00;;;13.90;99.90;;;;;;5047524;28;20471;-74
2023/03/13 12:19:14;;;;;;;2.90;1.47;;;14.00;99.90;;;;;;5047571;28;20471;-74
2023/03/13 12:21:53;;;;;;;2.50;1.77;;;14.00;99.90;;;;;;5032680;28;20471;-74
2023/03/13 12:24:27;;;;;;;3.00;1.90;;;14.10;99.90;;;;;;5032106;28;20506;-74
2023/03/13 12:26:59;;;;;;;1.67;1.20;;;14.20;99.90;;;;;;5032296;28;20514;-76
2023/03/13 12:29:37;;;;;;;2.37;1.40;;;14.20;99.90;;;;;;5029756;28;20458;-77
2023/03/13 12:32:13;;;;;;;2.43;1.70;;;14.30;99.90;;;;;;5051880;28;20586;-74
2023/03/13 12:34:57;;;;;;;2.07;1.87;;;14.30;99.90;;;;;;5051681;28;20459;-74
2023/03/13 12:37:34;;;;;;;2.33;2.13;;;14.30;99.90;;;;;;5038877;28;20459;-74
2023/03/13 12:40:09;;;;;;;1.27;1.17;;;14.30;99.90;;;;;;5052408;28;20525;-74
2023/03/13 12:42:55;;;;;;;1.60;1.50;;;14.40;99.90;;;;;;5051960;28;20467;-72
2023/03/13 12:45:25;;;;;;;1.33;1.20;;;14.40;99.90;;;;;;5051464;28;20467;-75
2023/03/13 12:48:25;;;;;;;1.63;1.53;;;14.40;99.90;;;;;;5052078;28;20807;-76
2023/03/13 12:51:08;;;;;;;2.87;1.37;;;14.50;99.90;;;;;;5051285;28;20513;-75
2023/03/13 12:53:53;;;;;;;1.53;1.30;;;14.60;99.90;;;;;;5050706;28;20646;-75
2023/03/13 12:56:52;;;;;;;1.40;1.30;;;14.60;99.90;;;;;;5052796;28;20463;-76
2023/03/13 12:59:24;;;;;;;2.20;2.03;;;14.70;99.90;;;;;;5051918;28;20486;-74
2023/03/13 13:01:53;;;;;;;1.30;1.20;;;14.80;99.90;;;;;;5050054;28;20490;-74
2023/03/13 13:04:23;;;;;;;3.40;1.90;;;14.90;99.90;;;;;;5047955;28;20476;-74